createdAt,value
2023-04-30T00:01:04.540Z,3.65
2023-04-30T00:03:32.339Z,3.47
2023-04-30T00:06:00.122Z,3.53
2023-04-30T00:08:27.842Z,4.57
2023-04-30T00:10:58.374Z,4.88
2023-04-30T00:13:26.009Z,5.80
2023-04-30T00:15:53.776Z,5.82
2023-04-30T00:18:21.618Z,3.97
2023-04-30T00:20:53.573Z,5.28
2023-04-30T00:23:21.379Z,6.93
2023-04-30T00:25:49.170Z,3.80
2023-04-30T00:28:16.942Z,4.63
2023-04-30T00:30:44.775Z,4.28
2023-04-30T00:33:12.852Z,5.82
2023-04-30T00:35:40.774Z,5.30
2023-04-30T00:38:08.478Z,5.65
2023-04-30T00:40:36.779Z,6.90
2023-04-30T00:43:04.462Z,3.22
2023-04-30T00:45:32.358Z,6.88
2023-04-30T00:48:00.350Z,5.80
2023-04-30T00:50:28.249Z,2.63
2023-04-30T00:52:55.972Z,5.70
2023-04-30T00:55:23.824Z,2.58
2023-04-30T00:57:51.608Z,5.05
2023-04-30T01:00:20.339Z,3.72
2023-04-30T01:02:48.264Z,3.45
2023-04-30T01:05:16.531Z,6.72
2023-04-30T01:07:46.446Z,3.17
2023-04-30T01:10:15.104Z,4.10
2023-04-30T01:12:42.707Z,6.80
2023-04-30T01:15:15.306Z,7.00
2023-04-30T01:18:06.409Z,3.30
2023-04-30T01:20:34.843Z,5.18
2023-04-30T01:23:12.748Z,7.18
2023-04-30T01:25:40.574Z,3.38
2023-04-30T01:28:14.424Z,6.50
2023-04-30T01:30:44.883Z,2.90
2023-04-30T01:33:12.816Z,5.55
2023-04-30T01:35:49.381Z,3.90
2023-04-30T01:38:46.035Z,4.32
2023-04-30T01:41:32.256Z,4.32
2023-04-30T01:44:05.601Z,5.07
2023-04-30T01:46:33.400Z,7.72
2023-04-30T01:49:16.694Z,8.45
2023-04-30T01:51:47.212Z,5.78
2023-04-30T01:54:14.841Z,5.45
2023-04-30T01:56:45.546Z,4.40
2023-04-30T01:59:14.515Z,8.85
2023-04-30T02:01:42.703Z,5.13
2023-04-30T02:04:13.396Z,5.18
2023-04-30T02:06:41.618Z,4.55
2023-04-30T02:09:12.002Z,4.47
2023-04-30T02:11:39.736Z,6.40
2023-04-30T02:14:07.598Z,5.10
2023-04-30T02:16:37.891Z,4.25
2023-04-30T02:19:05.597Z,6.07
2023-04-30T02:21:33.469Z,4.88
2023-04-30T02:24:01.454Z,5.82
2023-04-30T02:26:29.256Z,3.45
2023-04-30T02:28:57.019Z,4.95
2023-04-30T02:31:24.850Z,3.80
2023-04-30T02:33:55.140Z,10.85
2023-04-30T02:36:22.887Z,4.57
2023-04-30T02:38:50.730Z,7.03
2023-04-30T02:41:18.568Z,5.18
2023-04-30T02:43:46.269Z,5.65
2023-04-30T02:46:14.099Z,3.60
2023-04-30T02:48:41.928Z,2.97
2023-04-30T02:51:09.922Z,3.40
2023-04-30T02:53:37.584Z,2.42
2023-04-30T02:56:05.539Z,9.60
2023-04-30T02:58:33.231Z,4.78
2023-04-30T03:01:01.594Z,5.40
2023-04-30T03:03:30.126Z,4.07
2023-04-30T03:05:59.677Z,4.43
2023-04-30T03:08:27.410Z,6.38
2023-04-30T03:10:55.164Z,5.45
2023-04-30T03:13:25.914Z,3.50
2023-04-30T03:16:04.670Z,6.65
2023-04-30T03:18:32.519Z,4.20
2023-04-30T03:21:00.344Z,4.88
2023-04-30T03:23:29.280Z,3.72
2023-04-30T03:25:57.267Z,5.38
2023-04-30T03:28:24.969Z,6.25
2023-04-30T03:30:52.643Z,5.82
2023-04-30T03:33:23.050Z,7.25
2023-04-30T03:35:51.769Z,4.70
2023-04-30T03:38:19.899Z,4.57
2023-04-30T03:40:50.396Z,4.18
2023-04-30T03:43:20.880Z,3.42
2023-04-30T03:45:48.644Z,5.22
2023-04-30T03:48:19.186Z,4.30
2023-04-30T03:50:46.867Z,3.80
2023-04-30T03:53:14.498Z,2.85
2023-04-30T03:55:42.255Z,6.18
2023-04-30T03:58:10.042Z,5.07
2023-04-30T04:00:38.628Z,5.15
2023-04-30T04:03:07.465Z,3.45
2023-04-30T04:05:35.295Z,6.10
2023-04-30T04:08:02.855Z,6.80
2023-04-30T04:10:30.556Z,6.55
2023-04-30T04:13:00.747Z,4.35
2023-04-30T04:15:28.513Z,5.50
2023-04-30T04:17:56.454Z,7.95
2023-04-30T04:20:24.179Z,5.50
2023-04-30T04:22:57.481Z,7.65
2023-04-30T04:25:25.465Z,7.03
2023-04-30T04:27:54.660Z,4.78
2023-04-30T04:30:22.452Z,3.70
2023-04-30T04:32:54.066Z,4.65
2023-04-30T04:35:22.105Z,5.22
2023-04-30T04:37:49.909Z,4.63
2023-04-30T04:40:17.569Z,6.38
2023-04-30T04:42:45.398Z,5.20
2023-04-30T04:45:14.068Z,2.40
2023-04-30T04:47:41.852Z,2.65
2023-04-30T04:50:09.901Z,3.67
2023-04-30T04:52:37.581Z,7.43
2023-04-30T04:55:05.419Z,4.18
2023-04-30T04:57:33.267Z,10.55
2023-04-30T05:00:01.186Z,3.88
2023-04-30T05:02:30.669Z,4.95
2023-04-30T05:04:58.598Z,6.40
2023-04-30T05:07:26.431Z,7.35
2023-04-30T05:09:54.287Z,4.50
2023-04-30T05:12:22.100Z,5.55
2023-04-30T05:14:51.408Z,3.72
2023-04-30T05:17:19.222Z,6.15
2023-04-30T05:19:49.057Z,6.78
2023-04-30T05:22:19.381Z,10.20
2023-04-30T05:24:47.225Z,9.02
2023-04-30T05:27:15.037Z,7.53
2023-04-30T05:29:42.983Z,8.63
2023-04-30T05:32:10.752Z,5.15
2023-04-30T05:34:38.626Z,9.00
2023-04-30T05:37:06.388Z,4.93
2023-04-30T05:39:34.203Z,6.32
2023-04-30T05:42:02.616Z,5.47
2023-04-30T05:44:33.462Z,7.45
2023-04-30T05:47:01.296Z,13.15
2023-04-30T05:49:32.776Z,22.08
2023-04-30T05:52:03.796Z,13.52
2023-04-30T05:54:31.813Z,15.05
2023-04-30T05:56:59.595Z,14.60
2023-04-30T05:59:27.391Z,12.23
2023-04-30T06:01:56.307Z,11.90
2023-04-30T06:04:24.048Z,17.23
2023-04-30T06:06:51.947Z,14.95
2023-04-30T06:09:19.688Z,4.38
2023-04-30T06:11:50.442Z,8.23
2023-04-30T06:14:18.571Z,6.10
2023-04-30T06:16:46.466Z,4.45
2023-04-30T06:19:14.313Z,6.93
2023-04-30T06:21:44.071Z,5.63
2023-04-30T06:24:11.810Z,6.70
2023-04-30T06:26:40.170Z,5.10
2023-04-30T06:29:07.961Z,11.18
2023-04-30T06:31:35.510Z,11.95
2023-04-30T06:34:03.438Z,14.18
2023-04-30T06:36:31.716Z,15.20
2023-04-30T06:38:59.460Z,13.90
2023-04-30T06:41:27.132Z,10.30
2023-04-30T06:43:54.995Z,5.78
2023-04-30T06:46:22.898Z,6.85
2023-04-30T06:48:50.771Z,11.95
2023-04-30T06:51:18.529Z,9.10
2023-04-30T06:53:46.410Z,10.02
2023-04-30T06:56:14.057Z,10.50
2023-04-30T06:58:41.807Z,5.82
2023-04-30T07:01:10.638Z,3.70
2023-04-30T07:03:38.692Z,8.38
2023-04-30T07:06:06.915Z,9.40
2023-04-30T07:08:34.673Z,5.97
2023-04-30T07:11:02.461Z,6.07
2023-04-30T07:13:30.101Z,8.65
2023-04-30T07:15:59.862Z,7.82
2023-04-30T07:18:27.585Z,18.65
2023-04-30T07:20:56.165Z,16.90
2023-04-30T07:23:23.964Z,14.00
2023-04-30T07:25:51.620Z,8.63
2023-04-30T07:28:19.265Z,6.88
2023-04-30T07:30:50.286Z,6.82
2023-04-30T07:33:18.082Z,10.32
2023-04-30T07:35:46.571Z,5.90
2023-04-30T07:38:19.092Z,7.82
2023-04-30T07:40:47.032Z,12.82
2023-04-30T07:43:15.206Z,5.72
2023-04-30T07:45:42.897Z,8.15
2023-04-30T07:48:10.719Z,13.70
2023-04-30T07:50:40.584Z,17.45
2023-04-30T07:53:09.573Z,7.93
2023-04-30T07:55:37.447Z,15.25
2023-04-30T07:58:05.197Z,17.63
2023-04-30T08:00:33.051Z,14.43
2023-04-30T08:03:02.104Z,9.98
2023-04-30T08:05:32.376Z,9.77
2023-04-30T08:08:00.064Z,8.48
2023-04-30T08:10:27.886Z,5.22
2023-04-30T08:12:55.911Z,9.45
2023-04-30T08:15:23.763Z,9.52
2023-04-30T08:17:51.864Z,6.78
2023-04-30T08:20:19.766Z,7.95
2023-04-30T08:22:47.663Z,7.85
2023-04-30T08:25:18.512Z,9.52
2023-04-30T08:27:46.580Z,8.18
2023-04-30T08:30:14.370Z,7.50
2023-04-30T08:32:42.282Z,9.25
2023-04-30T08:35:10.375Z,5.72
2023-04-30T08:37:38.292Z,7.65
2023-04-30T08:40:09.784Z,8.23
2023-04-30T08:42:38.810Z,7.63
2023-04-30T08:45:07.847Z,9.95
2023-04-30T08:47:35.710Z,20.77
2023-04-30T08:50:03.632Z,10.40
2023-04-30T08:52:31.562Z,10.57
2023-04-30T08:54:59.920Z,8.13
2023-04-30T08:57:28.140Z,10.07
2023-04-30T08:59:56.267Z,7.07
2023-04-30T09:02:25.673Z,6.57
2023-04-30T09:04:53.521Z,6.10
2023-04-30T09:07:23.703Z,8.45
2023-04-30T09:09:54.054Z,7.70
2023-04-30T09:12:23.140Z,9.05
2023-04-30T09:15:04.623Z,8.52
2023-04-30T09:17:32.928Z,9.10
2023-04-30T09:20:13.693Z,8.40
2023-04-30T09:22:42.345Z,10.85
2023-04-30T09:25:10.552Z,16.80
2023-04-30T09:27:38.383Z,9.40
2023-04-30T09:30:06.527Z,11.13
2023-04-30T09:32:34.440Z,15.18
2023-04-30T09:35:02.325Z,9.73
2023-04-30T09:37:39.655Z,8.13
2023-04-30T09:40:07.837Z,7.65
2023-04-30T09:42:35.549Z,10.07
2023-04-30T09:45:05.992Z,6.40
2023-04-30T09:47:34.168Z,6.53
2023-04-30T09:50:04.571Z,3.97
2023-04-30T09:52:32.309Z,5.65
2023-04-30T09:55:00.054Z,4.57
2023-04-30T09:57:32.537Z,5.18
2023-04-30T10:00:01.990Z,7.47
2023-04-30T10:02:30.774Z,10.90
2023-04-30T10:04:59.267Z,9.15
2023-04-30T10:07:31.700Z,9.48
2023-04-30T10:10:00.543Z,9.20
2023-04-30T10:12:40.781Z,10.15
2023-04-30T10:15:13.839Z,16.35
2023-04-30T10:17:44.221Z,6.75
2023-04-30T10:20:14.168Z,13.20
2023-04-30T10:25:13.534Z,5.28
2023-04-30T10:27:41.440Z,6.57
2023-04-30T10:30:11.528Z,5.05
2023-04-30T10:32:52.346Z,7.47
2023-04-30T10:35:20.109Z,6.03
2023-04-30T10:37:54.389Z,7.78
2023-04-30T10:40:22.295Z,8.23
2023-04-30T10:42:50.537Z,6.72
2023-04-30T10:45:21.012Z,6.57
2023-04-30T10:47:49.109Z,6.38
2023-04-30T10:50:16.907Z,10.73
2023-04-30T10:52:45.174Z,8.50
2023-04-30T10:55:12.914Z,10.20
2023-04-30T10:57:44.162Z,8.48
2023-04-30T11:00:12.422Z,5.07
2023-04-30T11:02:44.226Z,9.50
2023-04-30T11:05:13.446Z,5.85
2023-04-30T11:07:49.307Z,8.00
2023-04-30T11:10:17.614Z,4.32
2023-04-30T11:12:52.350Z,6.60
2023-04-30T11:15:21.401Z,4.43
2023-04-30T11:17:49.905Z,7.25
2023-04-30T11:20:21.834Z,7.43
2023-04-30T11:22:49.727Z,7.22
2023-04-30T11:25:20.757Z,5.30
2023-04-30T11:27:48.616Z,8.90
2023-04-30T11:30:17.097Z,5.72
2023-04-30T11:32:47.535Z,11.13
2023-04-30T11:35:15.767Z,10.40
2023-04-30T11:37:44.709Z,9.30
2023-04-30T11:40:16.105Z,8.77
2023-04-30T11:42:46.475Z,7.80
2023-04-30T11:45:17.728Z,2.58
2023-04-30T11:47:47.042Z,7.43
2023-04-30T11:50:15.938Z,4.00
2023-04-30T11:52:44.220Z,5.93
2023-04-30T11:55:15.974Z,2.00
2023-04-30T11:57:44.710Z,3.90
2023-04-30T12:00:13.497Z,2.53
2023-04-30T12:02:41.481Z,3.70
2023-04-30T12:05:21.609Z,1.25
2023-04-30T12:07:50.031Z,2.47
2023-04-30T12:10:18.144Z,5.93
2023-04-30T12:12:46.058Z,4.20
2023-04-30T12:15:14.646Z,1.55
2023-04-30T12:17:42.524Z,1.17
2023-04-30T12:20:12.969Z,2.67
2023-04-30T12:22:40.995Z,0.80
2023-04-30T12:25:10.072Z,1.35
2023-04-30T12:27:37.941Z,1.42
2023-04-30T12:30:08.999Z,2.33
2023-04-30T12:32:46.863Z,0.98
2023-04-30T12:35:15.813Z,0.98
2023-04-30T12:37:52.174Z,0.45
2023-04-30T12:40:20.553Z,1.83
2023-04-30T12:42:48.291Z,1.08
2023-04-30T12:45:44.705Z,1.90
2023-04-30T12:48:12.731Z,2.28
2023-04-30T12:50:40.462Z,2.42
2023-04-30T12:53:08.372Z,2.10
2023-04-30T12:55:39.281Z,1.38
2023-04-30T12:58:07.553Z,1.05
2023-04-30T13:00:51.224Z,1.75
2023-04-30T13:03:21.289Z,1.58
2023-04-30T13:05:52.252Z,7.30
2023-04-30T13:08:23.057Z,3.22
2023-04-30T13:10:53.356Z,2.75
2023-04-30T13:13:21.391Z,2.90
2023-04-30T13:15:48.991Z,1.23
2023-04-30T13:18:19.190Z,1.63
2023-04-30T13:20:47.021Z,1.55
2023-04-30T13:23:14.801Z,1.30
2023-04-30T13:25:42.510Z,1.85
2023-04-30T13:28:10.233Z,1.95
2023-04-30T13:30:37.832Z,3.70
2023-04-30T13:33:05.552Z,2.58
2023-04-30T13:35:35.872Z,3.10
2023-04-30T13:38:03.636Z,4.13
2023-04-30T13:40:31.452Z,5.10
2023-04-30T13:42:59.240Z,2.90
2023-04-30T13:45:29.086Z,2.50
2023-04-30T13:47:56.922Z,8.23
2023-04-30T13:50:24.747Z,11.23
2023-04-30T13:52:52.660Z,1.23
2023-04-30T13:55:20.674Z,1.17
2023-04-30T13:57:48.497Z,2.10
2023-04-30T14:00:16.380Z,2.33
2023-04-30T14:02:44.199Z,2.25
2023-04-30T14:05:12.404Z,2.08
2023-04-30T14:07:40.051Z,1.00
2023-04-30T14:10:08.076Z,1.92
2023-04-30T14:12:35.807Z,4.25
2023-04-30T14:15:03.557Z,2.50
2023-04-30T14:17:31.559Z,1.77
2023-04-30T14:19:59.352Z,2.42
2023-04-30T14:22:27.193Z,1.90
2023-04-30T14:24:55.021Z,3.67
2023-04-30T14:27:22.830Z,2.15
2023-04-30T14:29:50.613Z,2.10
2023-04-30T14:32:18.678Z,1.88
2023-04-30T14:34:46.581Z,5.20
2023-04-30T14:37:15.617Z,0.85
2023-04-30T14:39:43.822Z,4.13
2023-04-30T14:42:11.605Z,2.35
2023-04-30T14:44:39.555Z,2.80
2023-04-30T14:47:07.143Z,1.70
2023-04-30T14:49:34.752Z,2.92
2023-04-30T14:52:02.539Z,3.33
2023-04-30T14:54:30.211Z,2.92
2023-04-30T14:56:57.807Z,1.27
2023-04-30T14:59:25.757Z,2.53
2023-04-30T15:01:53.949Z,2.05
2023-04-30T15:04:22.876Z,1.90
2023-04-30T15:06:50.713Z,1.85
2023-04-30T15:09:18.661Z,1.38
2023-04-30T15:11:46.282Z,1.63
2023-04-30T15:14:14.223Z,1.75
2023-04-30T15:16:42.013Z,2.10
2023-04-30T15:19:09.713Z,1.98
2023-04-30T15:21:37.531Z,1.80
2023-04-30T15:24:05.402Z,1.13
2023-04-30T15:26:33.681Z,1.63
2023-04-30T15:29:01.634Z,2.05
2023-04-30T15:31:30.833Z,3.90
2023-04-30T15:33:58.725Z,1.65
2023-04-30T15:36:26.651Z,1.70
2023-04-30T15:38:54.650Z,1.20
2023-04-30T15:41:22.446Z,1.67
2023-04-30T15:43:50.136Z,0.82
2023-04-30T15:46:17.925Z,7.80
2023-04-30T15:48:45.675Z,1.13
2023-04-30T15:51:13.854Z,4.18
2023-04-30T15:53:41.657Z,2.00
2023-04-30T15:56:09.842Z,1.63
2023-04-30T15:58:37.590Z,2.30
2023-04-30T16:01:05.795Z,3.22
2023-04-30T16:03:34.248Z,3.05
2023-04-30T16:06:02.845Z,2.45
2023-04-30T16:08:30.734Z,1.38
2023-04-30T16:10:58.385Z,2.08
2023-04-30T16:13:27.735Z,0.15
2023-04-30T16:15:55.417Z,1.30
2023-04-30T16:18:23.139Z,0.98
2023-04-30T16:20:51.967Z,0.88
2023-04-30T16:23:19.776Z,0.30
2023-04-30T16:25:47.554Z,1.48
2023-04-30T16:28:15.373Z,4.43
2023-04-30T16:30:43.889Z,0.95
2023-04-30T16:33:11.580Z,2.20
2023-04-30T16:35:39.634Z,1.20
2023-04-30T16:38:07.434Z,2.70
2023-04-30T16:40:34.895Z,2.83
2023-04-30T16:43:02.483Z,3.92
2023-04-30T16:45:30.381Z,2.17
2023-04-30T16:47:58.435Z,1.40
2023-04-30T16:50:27.119Z,2.58
2023-04-30T16:52:55.065Z,3.08
2023-04-30T16:55:22.881Z,1.27
2023-04-30T16:57:50.976Z,2.50
2023-04-30T17:00:18.902Z,1.38
2023-04-30T17:02:49.182Z,0.98
2023-04-30T17:05:17.647Z,1.17
2023-04-30T17:07:45.545Z,1.13
2023-04-30T17:10:14.797Z,1.20
2023-04-30T17:12:42.635Z,1.38
2023-04-30T17:15:10.721Z,1.88
2023-04-30T17:17:41.783Z,2.30
2023-04-30T17:20:09.631Z,1.67
2023-04-30T17:22:38.362Z,1.00
2023-04-30T17:25:06.212Z,2.42
2023-04-30T17:27:34.100Z,2.05
2023-04-30T17:30:01.801Z,3.03
2023-04-30T17:32:29.634Z,6.50
2023-04-30T17:34:57.941Z,5.68
2023-04-30T17:37:25.858Z,0.35
2023-04-30T17:39:53.746Z,4.05
2023-04-30T17:42:21.732Z,1.55
2023-04-30T17:44:49.426Z,3.83
2023-04-30T17:47:17.124Z,1.17
2023-04-30T17:49:44.720Z,2.55
2023-04-30T17:52:12.650Z,2.97
2023-04-30T17:54:40.807Z,3.83
2023-04-30T17:57:08.680Z,6.43
2023-04-30T17:59:36.535Z,2.13
2023-04-30T18:02:05.748Z,3.08
2023-04-30T18:04:34.090Z,1.00
2023-04-30T18:07:01.902Z,5.65
2023-04-30T18:09:30.551Z,1.05
2023-04-30T18:12:00.740Z,1.08
2023-04-30T18:14:29.073Z,0.90
2023-04-30T18:16:56.918Z,1.75
2023-04-30T18:19:24.705Z,0.70
2023-04-30T18:21:53.250Z,5.82
2023-04-30T18:24:21.323Z,1.35
2023-04-30T18:26:49.046Z,2.08
2023-04-30T18:29:22.823Z,2.85
2023-04-30T18:31:50.688Z,6.28
2023-04-30T18:34:18.478Z,3.25
2023-04-30T18:36:46.287Z,2.75
2023-04-30T18:39:14.072Z,2.47
2023-04-30T18:41:41.866Z,3.30
2023-04-30T18:44:11.400Z,1.85
2023-04-30T18:46:39.106Z,3.97
2023-04-30T18:49:07.074Z,4.63
2023-04-30T18:51:34.869Z,3.35
2023-04-30T18:54:02.913Z,3.85
2023-04-30T18:56:30.744Z,2.63
2023-04-30T18:59:01.275Z,6.63
2023-04-30T19:01:29.566Z,2.95
2023-04-30T19:03:57.802Z,2.92
2023-04-30T19:08:55.938Z,7.10
2023-04-30T19:11:23.774Z,5.97
2023-04-30T19:13:51.631Z,3.70
2023-04-30T19:16:19.412Z,4.15
2023-04-30T19:18:49.645Z,3.20
2023-04-30T19:21:17.372Z,2.25
2023-04-30T19:23:45.103Z,4.32
2023-04-30T19:26:12.821Z,1.83
2023-04-30T19:28:40.541Z,4.40
2023-04-30T19:31:08.387Z,1.20
2023-04-30T19:33:39.307Z,4.25
2023-04-30T19:36:10.243Z,2.17
2023-04-30T19:38:37.939Z,5.53
2023-04-30T19:41:05.708Z,3.78
2023-04-30T19:43:33.606Z,3.42
2023-04-30T19:46:02.532Z,1.70
2023-04-30T19:48:31.527Z,4.22
2023-04-30T19:50:59.261Z,3.13
2023-04-30T19:53:27.176Z,1.95
2023-04-30T19:55:54.994Z,2.67
2023-04-30T19:58:22.725Z,2.33
2023-04-30T20:00:50.919Z,3.42
2023-04-30T20:03:20.677Z,2.45
2023-04-30T20:05:48.599Z,0.95
2023-04-30T20:08:18.729Z,2.83
2023-04-30T20:10:47.972Z,1.77
2023-04-30T20:13:16.237Z,0.95
2023-04-30T20:15:44.317Z,1.95
2023-04-30T20:18:12.733Z,3.47
2023-04-30T20:20:40.437Z,2.22
2023-04-30T20:23:14.135Z,3.72
2023-04-30T20:25:43.059Z,1.98
2023-04-30T20:28:10.883Z,3.25
2023-04-30T20:30:39.709Z,3.47
2023-04-30T20:33:08.210Z,1.33
2023-04-30T20:35:36.267Z,1.73
2023-04-30T20:38:04.124Z,1.35
2023-04-30T20:40:32.087Z,5.78
2023-04-30T20:42:59.980Z,2.15
2023-04-30T20:45:28.297Z,20.10
2023-04-30T20:47:56.181Z,1.38
2023-04-30T20:50:23.990Z,0.95
2023-04-30T20:52:51.687Z,1.10
2023-04-30T20:55:19.416Z,0.55
2023-04-30T20:57:47.230Z,0.50
2023-04-30T21:00:14.943Z,1.50
2023-04-30T21:02:43.506Z,0.65
2023-04-30T21:05:11.928Z,1.65
2023-04-30T21:07:39.541Z,1.92
2023-04-30T21:10:10.801Z,1.70
2023-04-30T21:12:38.461Z,1.55
2023-04-30T21:15:06.343Z,2.50
2023-04-30T21:17:34.240Z,4.95
2023-04-30T21:20:01.885Z,1.30
2023-04-30T21:22:32.511Z,10.57
2023-04-30T21:25:00.393Z,3.33
2023-04-30T21:27:28.362Z,2.42
2023-04-30T21:29:56.374Z,0.70
2023-04-30T21:32:24.426Z,4.07
2023-04-30T21:34:52.174Z,1.83
2023-04-30T21:37:23.045Z,4.03
2023-04-30T21:39:56.894Z,1.20
2023-04-30T21:42:25.102Z,3.35
2023-04-30T21:44:52.897Z,0.93
2023-04-30T21:47:20.723Z,2.03
2023-04-30T21:49:48.566Z,4.95
2023-04-30T21:52:18.636Z,3.70
2023-04-30T21:54:46.346Z,5.03
2023-04-30T21:57:14.202Z,3.58
2023-04-30T21:59:42.333Z,5.97
2023-04-30T22:02:22.807Z,0.95
2023-04-30T22:04:53.436Z,1.08
2023-04-30T22:07:21.544Z,2.40
2023-04-30T22:09:49.614Z,1.70
2023-04-30T22:12:19.235Z,3.58
2023-04-30T22:14:52.047Z,4.65
2023-04-30T22:17:19.688Z,2.58
2023-04-30T22:19:47.383Z,5.10
2023-04-30T22:22:15.148Z,3.38
2023-04-30T22:24:42.964Z,4.90
2023-04-30T22:27:10.717Z,1.20
2023-04-30T22:29:38.647Z,5.20
2023-04-30T22:32:09.572Z,2.88
2023-04-30T22:34:38.968Z,0.82
2023-04-30T22:37:06.863Z,1.75
2023-04-30T22:39:34.642Z,4.57
2023-04-30T22:42:02.376Z,3.70
2023-04-30T22:44:30.540Z,2.72
2023-04-30T22:47:02.303Z,4.38
2023-04-30T22:49:31.972Z,4.25
2023-04-30T22:54:27.655Z,2.67
2023-04-30T22:56:55.558Z,1.95
2023-04-30T22:59:23.375Z,1.45
2023-04-30T23:01:52.247Z,1.80
2023-04-30T23:04:19.940Z,6.88
2023-04-30T23:06:47.797Z,3.05
2023-04-30T23:09:15.953Z,3.72
2023-04-30T23:11:47.005Z,2.60
2023-04-30T23:14:14.891Z,3.45
2023-04-30T23:16:42.908Z,2.20
2023-04-30T23:19:10.815Z,2.55
2023-04-30T23:21:39.055Z,2.67
2023-04-30T23:24:06.752Z,5.88
2023-04-30T23:26:34.382Z,3.08
2023-04-30T23:29:02.886Z,3.10
2023-04-30T23:31:30.744Z,1.52
2023-04-30T23:33:59.010Z,3.10
2023-04-30T23:36:26.837Z,3.03
2023-04-30T23:38:54.479Z,2.13
2023-04-30T23:41:24.882Z,1.58
2023-04-30T23:43:52.692Z,1.30
2023-04-30T23:46:20.688Z,2.92
2023-04-30T23:48:49.499Z,4.65
2023-04-30T23:51:18.695Z,3.20
2023-04-30T23:53:46.547Z,2.50
2023-04-30T23:56:14.243Z,2.08
2023-04-30T23:58:42.011Z,3.17
